createdAt,value
2023-03-22T00:03:11.005Z,49.22
2023-03-22T00:08:14.080Z,49.21
2023-03-22T00:13:16.616Z,49.49
2023-03-22T00:18:19.692Z,49.87
2023-03-22T00:23:23.339Z,49.69
2023-03-22T00:28:25.937Z,49.36
2023-03-22T00:33:30.148Z,49.48
2023-03-22T00:38:43.649Z,49.14
2023-03-22T00:43:47.556Z,49.83
2023-03-22T00:48:50.050Z,49.77
2023-03-22T00:53:54.208Z,49.44
2023-03-22T00:58:57.144Z,49.35
2023-03-22T01:04:00.090Z,49.33
2023-03-22T01:09:02.737Z,49.56
2023-03-22T01:14:05.328Z,49.85
2023-03-22T01:19:27.670Z,50.28
2023-03-22T01:24:30.257Z,50.20
2023-03-22T01:29:32.741Z,50.04
2023-03-22T01:34:38.338Z,50.20
2023-03-22T01:39:41.642Z,49.64
2023-03-22T01:45:14.829Z,49.71
2023-03-22T01:50:24.703Z,50.26
2023-03-22T01:55:28.428Z,50.38
2023-03-22T02:00:42.847Z,50.62
2023-03-22T02:06:19.169Z,50.57
2023-03-22T02:11:33.346Z,51.67
2023-03-22T02:16:46.983Z,52.02
2023-03-22T02:22:22.229Z,52.60
2023-03-22T02:28:06.925Z,53.57
2023-03-22T02:33:18.419Z,54.01
2023-03-22T02:38:45.969Z,55.15
2023-03-22T02:43:57.273Z,55.21
2023-03-22T02:49:21.180Z,55.90
2023-03-22T02:54:34.428Z,56.54
2023-03-22T02:59:41.239Z,57.39
2023-03-22T03:04:48.453Z,58.01
2023-03-22T03:09:51.903Z,57.88
2023-03-22T03:14:54.961Z,58.06
2023-03-22T03:20:09.697Z,58.80
2023-03-22T03:25:31.199Z,59.24
2023-03-22T03:30:45.630Z,59.74
2023-03-22T03:35:58.880Z,59.34
2023-03-22T03:41:05.462Z,59.75
2023-03-22T03:46:09.159Z,60.25
2023-03-22T03:51:11.785Z,60.28
2023-03-22T03:56:14.588Z,60.60
2023-03-22T04:01:21.910Z,59.95
2023-03-22T04:06:34.988Z,60.48
2023-03-22T04:11:44.573Z,60.41
2023-03-22T04:16:48.819Z,60.16
2023-03-22T04:21:55.072Z,59.40
2023-03-22T04:27:01.472Z,58.71
2023-03-22T04:32:10.860Z,58.76
2023-03-22T04:37:18.623Z,57.98
2023-03-22T04:42:41.410Z,57.52
2023-03-22T04:47:57.580Z,56.40
2023-03-22T04:53:00.414Z,56.20
2023-03-22T04:58:03.306Z,56.11
2023-03-22T05:03:06.161Z,55.78
2023-03-22T05:08:14.599Z,55.14
2023-03-22T05:13:22.213Z,55.90
2023-03-22T05:18:26.534Z,55.95
2023-03-22T05:23:32.088Z,56.58
2023-03-22T05:28:36.093Z,56.51
2023-03-22T05:33:55.568Z,56.43
2023-03-22T05:39:03.403Z,56.23
2023-03-22T05:44:06.672Z,55.62
2023-03-22T05:49:12.299Z,55.58
2023-03-22T05:54:16.230Z,54.53
2023-03-22T05:59:24.645Z,54.26
2023-03-22T06:04:27.423Z,53.40
2023-03-22T06:09:37.112Z,52.87
2023-03-22T06:14:43.663Z,51.62
2023-03-22T06:19:56.041Z,51.02
2023-03-22T06:24:59.741Z,50.58
2023-03-22T06:30:14.114Z,50.48
2023-03-22T06:35:39.613Z,49.71
2023-03-22T06:40:45.309Z,49.51
2023-03-22T06:45:49.361Z,49.25
2023-03-22T06:50:57.700Z,49.43
2023-03-22T06:56:05.463Z,49.93
2023-03-22T07:01:21.726Z,49.38
2023-03-22T07:06:24.674Z,49.77
2023-03-22T07:11:30.674Z,50.35
2023-03-22T07:16:35.879Z,49.73
2023-03-22T07:21:40.920Z,49.88
2023-03-22T07:26:46.876Z,49.19
2023-03-22T07:31:54.623Z,48.73
2023-03-22T07:37:05.255Z,48.39
2023-03-22T07:42:08.167Z,47.91
2023-03-22T07:47:40.759Z,46.48
2023-03-22T07:53:04.578Z,45.63
2023-03-22T07:58:07.158Z,45.85
2023-03-22T08:03:12.651Z,45.67
2023-03-22T08:08:32.939Z,44.99
2023-03-22T08:13:36.052Z,44.42
2023-03-22T08:18:39.227Z,43.66
2023-03-22T08:23:43.162Z,43.25
2023-03-22T08:29:04.251Z,43.02
2023-03-22T08:34:10.419Z,42.04
2023-03-22T08:39:13.830Z,41.52
2023-03-22T08:44:26.832Z,40.99
2023-03-22T08:49:30.189Z,41.11
2023-03-22T08:54:38.842Z,40.62
2023-03-22T08:59:41.403Z,40.04
2023-03-22T09:05:10.816Z,39.73
2023-03-22T09:10:14.393Z,39.28
2023-03-22T09:15:19.270Z,38.56
2023-03-22T09:20:35.015Z,38.23
2023-03-22T09:25:46.719Z,37.59
2023-03-22T09:30:51.660Z,36.86
2023-03-22T09:35:55.781Z,36.39
2023-03-22T09:41:14.534Z,36.46
2023-03-22T09:46:37.161Z,35.57
2023-03-22T09:51:45.607Z,35.72
2023-03-22T09:56:58.507Z,35.83
2023-03-22T10:02:05.609Z,35.95
2023-03-22T10:07:18.947Z,36.53
2023-03-22T10:12:28.783Z,37.10
2023-03-22T10:18:08.625Z,37.15
2023-03-22T10:23:21.313Z,36.90
2023-03-22T10:29:06.355Z,38.14
2023-03-22T10:34:31.511Z,38.58
2023-03-22T10:39:45.535Z,38.33
2023-03-22T10:44:52.290Z,38.16
2023-03-22T10:49:58.255Z,38.21
2023-03-22T10:55:04.355Z,38.29
2023-03-22T11:00:12.956Z,37.61
2023-03-22T11:05:23.316Z,37.27
2023-03-22T11:10:29.579Z,37.47
2023-03-22T11:15:34.077Z,37.10
2023-03-22T11:20:40.304Z,35.67
2023-03-22T11:25:49.663Z,33.74
2023-03-22T11:31:07.009Z,32.67
2023-03-22T11:36:19.206Z,31.65
2023-03-22T11:41:26.136Z,31.59
2023-03-22T11:46:30.159Z,31.84
2023-03-22T11:51:38.655Z,31.13
2023-03-22T11:56:47.589Z,30.32
2023-03-22T12:01:53.077Z,31.27
2023-03-22T12:07:05.964Z,33.21
2023-03-22T12:12:19.547Z,35.08
2023-03-22T12:17:41.131Z,34.10
2023-03-22T12:22:51.384Z,33.46
2023-03-22T12:27:57.533Z,32.79
2023-03-22T12:33:06.111Z,32.74
2023-03-22T12:38:35.770Z,32.90
2023-03-22T12:44:11.507Z,33.12
2023-03-22T12:49:21.950Z,32.97
2023-03-22T12:54:26.488Z,32.01
2023-03-22T12:59:31.590Z,32.44
2023-03-22T13:04:37.361Z,32.11
2023-03-22T13:09:51.044Z,32.10
2023-03-22T13:15:01.570Z,31.92
2023-03-22T13:20:07.100Z,31.90
2023-03-22T13:25:19.271Z,32.35
2023-03-22T13:30:24.576Z,32.60
2023-03-22T13:35:41.111Z,33.12
2023-03-22T13:41:00.105Z,33.41
2023-03-22T13:46:10.110Z,33.54
2023-03-22T13:51:25.839Z,34.04
2023-03-22T13:56:32.052Z,34.84
2023-03-22T14:01:38.482Z,35.10
2023-03-22T14:06:52.737Z,35.27
2023-03-22T14:12:08.750Z,36.45
2023-03-22T14:17:21.259Z,36.78
